createdAt,value
2018-09-12T00:00:09.962Z,6.75
2018-09-12T00:01:12.772Z,7.25
2018-09-12T00:02:15.521Z,7.00
2018-09-12T00:03:19.350Z,6.00
2018-09-12T00:04:22.178Z,6.75
2018-09-12T00:05:24.975Z,6.75
2018-09-12T00:06:27.758Z,6.50
2018-09-12T00:07:30.502Z,6.75
2018-09-12T00:08:33.276Z,6.00
2018-09-12T00:09:36.016Z,5.25
2018-09-12T00:10:38.781Z,6.25
2018-09-12T00:11:41.877Z,5.00
2018-09-12T00:12:47.492Z,8.00
2018-09-12T00:13:52.113Z,5.50
2018-09-12T00:14:54.860Z,5.00
2018-09-12T00:15:57.763Z,5.50
2018-09-12T00:17:01.696Z,8.00
2018-09-12T00:18:04.456Z,7.00
2018-09-12T00:19:07.676Z,5.00
2018-09-12T00:20:10.549Z,7.50
2018-09-12T00:21:14.322Z,7.25
2018-09-12T00:22:17.090Z,6.75
2018-09-12T00:23:20.519Z,5.00
2018-09-12T00:24:23.309Z,7.00
2018-09-12T00:25:26.343Z,6.50
2018-09-12T00:26:29.103Z,5.50
2018-09-12T00:27:31.932Z,8.00
2018-09-12T00:28:34.682Z,7.00
2018-09-12T00:29:37.431Z,6.00
2018-09-12T00:30:40.221Z,6.50
2018-09-12T00:31:43.273Z,7.25
2018-09-12T00:32:46.797Z,5.50
2018-09-12T00:33:50.266Z,8.00
2018-09-12T00:34:54.682Z,7.00
2018-09-12T00:35:57.530Z,6.75
2018-09-12T00:37:00.292Z,7.00
2018-09-12T00:38:03.611Z,7.00
2018-09-12T00:39:06.367Z,8.50
2018-09-12T00:40:09.187Z,7.00
2018-09-12T00:41:11.935Z,7.25
2018-09-12T00:42:14.712Z,7.00
2018-09-12T00:43:17.468Z,8.00
2018-09-12T00:44:20.514Z,8.50
2018-09-12T00:45:23.464Z,7.75
2018-09-12T00:46:26.187Z,8.00
2018-09-12T00:47:29.067Z,8.00
2018-09-12T00:48:32.140Z,8.00
2018-09-12T00:49:35.030Z,8.00
2018-09-12T00:50:39.704Z,8.00
2018-09-12T00:51:42.454Z,8.00
2018-09-12T00:52:45.648Z,8.50
2018-09-12T00:53:48.374Z,8.00
2018-09-12T00:54:51.229Z,6.00
2018-09-12T00:55:54.045Z,7.50
2018-09-12T00:56:57.089Z,7.00
2018-09-12T00:57:59.836Z,7.00
2018-09-12T00:59:02.660Z,8.00
2018-09-12T01:00:05.396Z,8.00
2018-09-12T01:01:08.725Z,7.50
2018-09-12T01:02:11.610Z,7.25
2018-09-12T01:03:14.627Z,7.00
2018-09-12T01:04:17.359Z,8.00
2018-09-12T01:05:20.093Z,7.75
2018-09-12T01:06:22.915Z,7.75
2018-09-12T01:07:25.646Z,8.00
2018-09-12T01:08:28.384Z,7.50
2018-09-12T01:09:31.725Z,8.00
2018-09-12T01:10:34.574Z,6.50
2018-09-12T01:11:37.305Z,7.00
2018-09-12T01:12:40.076Z,7.75
2018-09-12T01:13:42.838Z,7.00
2018-09-12T01:14:45.580Z,6.50
2018-09-12T01:15:48.826Z,5.50
2018-09-12T01:16:55.381Z,5.00
2018-09-12T01:17:58.695Z,5.00
2018-09-12T01:19:01.480Z,5.50
2018-09-12T01:20:04.217Z,7.00
2018-09-12T01:21:06.943Z,7.00
2018-09-12T01:22:09.983Z,5.00
2018-09-12T01:23:12.756Z,4.50
2018-09-12T01:24:15.495Z,4.75
2018-09-12T01:25:18.685Z,4.25
2018-09-12T01:26:21.435Z,5.50
2018-09-12T01:27:24.166Z,5.00
2018-09-12T01:28:27.206Z,5.00
2018-09-12T01:29:29.960Z,6.00
2018-09-12T01:30:32.761Z,4.50
2018-09-12T01:31:35.487Z,5.00
2018-09-12T01:32:38.230Z,5.50
2018-09-12T01:33:41.260Z,7.75
2018-09-12T01:34:44.274Z,5.00
2018-09-12T01:35:47.036Z,7.00
2018-09-12T01:36:49.786Z,6.00
2018-09-12T01:37:52.697Z,7.00
2018-09-12T01:38:55.434Z,7.00
2018-09-12T01:39:58.169Z,4.75
2018-09-12T01:41:01.314Z,6.50
2018-09-12T01:42:04.293Z,5.00
2018-09-12T01:43:07.070Z,7.00
2018-09-12T01:44:09.806Z,5.50
2018-09-12T01:45:12.671Z,7.00
2018-09-12T01:46:15.391Z,5.00
2018-09-12T01:47:18.417Z,7.75
2018-09-12T01:48:21.155Z,5.00
2018-09-12T01:49:23.953Z,6.00
2018-09-12T01:50:26.827Z,5.00
2018-09-12T01:51:29.585Z,7.00
2018-09-12T01:52:32.504Z,6.50
2018-09-12T01:53:35.602Z,7.75
2018-09-12T01:54:38.400Z,5.50
2018-09-12T01:55:41.274Z,8.00
2018-09-12T01:56:44.009Z,7.00
2018-09-12T01:57:46.802Z,6.00
2018-09-12T01:58:49.601Z,7.50
2018-09-12T01:59:53.359Z,7.00
2018-09-12T02:00:56.114Z,6.00
2018-09-12T02:01:58.844Z,7.00
2018-09-12T02:03:01.698Z,4.50
2018-09-12T02:04:04.590Z,7.00
2018-09-12T02:05:07.411Z,7.50
2018-09-12T02:06:10.463Z,7.50
2018-09-12T02:07:13.971Z,5.00
2018-09-12T02:08:16.725Z,7.00
2018-09-12T02:09:19.709Z,7.00
2018-09-12T02:10:22.446Z,6.00
2018-09-12T02:11:25.192Z,7.75
2018-09-12T02:12:28.234Z,7.00
2018-09-12T02:13:31.668Z,7.00
2018-09-12T02:14:34.437Z,7.00
2018-09-12T02:15:37.203Z,7.50
2018-09-12T02:16:40.770Z,7.50
2018-09-12T02:17:43.547Z,8.50
2018-09-12T02:18:46.976Z,7.00
2018-09-12T02:19:49.928Z,7.25
2018-09-12T02:20:52.758Z,7.00
2018-09-12T02:21:55.940Z,6.50
2018-09-12T02:22:58.765Z,6.50
2018-09-12T02:24:02.761Z,7.75
2018-09-12T02:25:06.602Z,7.00
2018-09-12T02:26:09.377Z,5.50
2018-09-12T02:27:12.155Z,4.75
2018-09-12T02:28:16.471Z,5.50
2018-09-12T02:29:19.348Z,5.50
2018-09-12T02:30:22.766Z,5.00
2018-09-12T02:31:25.960Z,6.00
2018-09-12T02:32:28.693Z,5.00
2018-09-12T02:33:31.652Z,5.00
2018-09-12T02:34:34.373Z,7.00
2018-09-12T02:35:41.297Z,7.25
2018-09-12T02:36:44.506Z,7.00
2018-09-12T02:37:47.460Z,6.50
2018-09-12T02:38:50.450Z,5.00
2018-09-12T02:39:53.278Z,6.50
2018-09-12T02:40:56.200Z,6.50
2018-09-12T02:41:58.937Z,5.00
2018-09-12T02:43:02.007Z,6.50
2018-09-12T02:44:05.935Z,5.00
2018-09-12T02:45:08.925Z,5.00
2018-09-12T02:46:11.696Z,5.00
2018-09-12T02:47:19.377Z,4.00
2018-09-12T02:48:22.568Z,5.00
2018-09-12T02:49:25.392Z,6.00
2018-09-12T02:50:28.133Z,6.00
2018-09-12T02:51:30.871Z,5.00
2018-09-12T02:52:33.585Z,6.00
2018-09-12T02:53:36.337Z,4.75
2018-09-12T02:54:39.517Z,6.50
2018-09-12T02:55:42.268Z,6.00
2018-09-12T02:56:45.094Z,5.00
2018-09-12T02:57:47.867Z,4.50
2018-09-12T02:58:50.730Z,4.50
2018-09-12T03:02:15.228Z,4.50
2018-09-12T03:03:17.946Z,5.00
2018-09-12T03:05:34.463Z,5.00
2018-09-12T03:06:37.231Z,7.00
2018-09-12T03:07:40.428Z,5.00
2018-09-12T03:08:43.197Z,5.00
2018-09-12T03:09:46.041Z,6.00
2018-09-12T03:10:48.953Z,5.00
2018-09-12T03:11:54.734Z,5.00
2018-09-12T03:12:57.628Z,5.00
2018-09-12T03:14:00.715Z,5.00
2018-09-12T03:15:03.458Z,5.00
2018-09-12T03:16:06.209Z,7.00
2018-09-12T03:17:08.980Z,6.00
2018-09-12T03:18:11.752Z,7.00
2018-09-12T03:19:14.506Z,7.75
2018-09-12T03:20:17.542Z,7.00
2018-09-12T03:21:20.314Z,7.00
2018-09-12T03:22:23.062Z,7.00
2018-09-12T03:23:25.856Z,7.50
2018-09-12T03:24:28.707Z,9.50
2018-09-12T03:25:31.455Z,7.00
2018-09-12T03:26:34.927Z,7.00
2018-09-12T03:27:37.667Z,5.50
2018-09-12T03:28:40.414Z,5.50
2018-09-12T03:29:43.213Z,5.50
2018-09-12T03:30:47.584Z,7.25
2018-09-12T03:31:50.354Z,7.50
2018-09-12T03:32:53.562Z,7.00
2018-09-12T03:33:56.361Z,7.00
2018-09-12T03:34:59.073Z,6.50
2018-09-12T03:36:01.789Z,8.00
2018-09-12T03:37:04.596Z,7.50
2018-09-12T03:38:07.342Z,6.50
2018-09-12T03:39:11.863Z,5.00
2018-09-12T03:40:14.733Z,5.00
2018-09-12T03:41:17.481Z,5.50
2018-09-12T03:42:20.292Z,5.00
2018-09-12T03:43:23.825Z,7.00
2018-09-12T03:44:26.619Z,5.00
2018-09-12T03:45:29.735Z,4.00
2018-09-12T03:46:32.491Z,5.00
2018-09-12T03:47:35.294Z,5.00
2018-09-12T03:48:38.165Z,5.00
2018-09-12T03:49:41.041Z,6.50
2018-09-12T03:50:43.914Z,5.00
2018-09-12T03:51:47.196Z,5.00
2018-09-12T03:52:49.918Z,5.00
2018-09-12T03:53:52.681Z,5.00
2018-09-12T03:54:55.401Z,5.00
2018-09-12T03:55:58.116Z,4.00
2018-09-12T03:57:00.900Z,4.00
2018-09-12T03:58:04.076Z,4.50
2018-09-12T03:59:06.854Z,5.00
2018-09-12T04:00:10.065Z,5.00
2018-09-12T04:01:12.873Z,5.00
2018-09-12T04:02:15.636Z,5.00
2018-09-12T04:03:20.003Z,5.00
2018-09-12T04:04:22.750Z,5.00
2018-09-12T04:05:25.501Z,4.50
2018-09-12T04:06:28.864Z,5.50
2018-09-12T04:07:31.600Z,4.00
2018-09-12T04:08:34.340Z,4.00
2018-09-12T04:09:37.406Z,4.50
2018-09-12T04:10:40.665Z,4.00
2018-09-12T04:11:44.176Z,5.00
2018-09-12T04:12:46.921Z,5.50
2018-09-12T04:13:49.648Z,5.00
2018-09-12T04:14:52.424Z,5.00
2018-09-12T04:15:55.682Z,4.75
2018-09-12T04:16:58.562Z,4.75
2018-09-12T04:18:01.284Z,5.00
2018-09-12T04:19:04.082Z,7.00
2018-09-12T04:20:07.347Z,4.25
2018-09-12T04:21:10.905Z,5.00
2018-09-12T04:22:14.520Z,4.25
2018-09-12T04:23:17.750Z,4.25
2018-09-12T04:24:20.746Z,4.50
2018-09-12T04:25:23.541Z,4.50
2018-09-12T04:26:26.308Z,4.75
2018-09-12T04:27:29.157Z,6.00
2018-09-12T04:28:32.389Z,5.00
2018-09-12T04:29:35.146Z,5.00
2018-09-12T04:30:37.937Z,4.50
2018-09-12T04:31:40.663Z,4.50
2018-09-12T04:32:43.437Z,4.75
2018-09-12T04:33:46.186Z,5.00
2018-09-12T04:34:49.458Z,5.00
2018-09-12T04:35:52.182Z,4.50
2018-09-12T04:36:54.971Z,5.00
2018-09-12T04:37:57.745Z,4.75
2018-09-12T04:39:00.503Z,5.00
2018-09-12T04:40:03.234Z,5.00
2018-09-12T04:41:07.242Z,5.00
2018-09-12T04:42:10.009Z,5.00
2018-09-12T04:43:12.854Z,5.00
2018-09-12T04:44:15.642Z,6.00
2018-09-12T04:45:18.453Z,7.00
2018-09-12T04:46:21.240Z,8.00
2018-09-12T04:47:24.329Z,8.00
2018-09-12T04:48:27.742Z,8.00
2018-09-12T04:49:30.570Z,5.50
2018-09-12T04:50:33.346Z,6.50
2018-09-12T04:51:36.191Z,10.50
2018-09-12T04:52:39.017Z,9.50
2018-09-12T04:53:42.388Z,7.50
2018-09-12T04:54:45.145Z,7.00
2018-09-12T04:55:47.901Z,5.00
2018-09-12T04:56:50.705Z,6.75
2018-09-12T04:57:54.184Z,7.00
2018-09-12T04:58:56.954Z,7.25
2018-09-12T05:00:00.078Z,7.25
2018-09-12T05:01:02.874Z,11.00
2018-09-12T05:02:05.943Z,11.75
2018-09-12T05:03:08.696Z,10.00
2018-09-12T05:04:11.432Z,8.00
2018-09-12T05:05:14.281Z,10.00
2018-09-12T05:06:17.016Z,8.75
2018-09-12T05:07:19.796Z,9.75
2018-09-12T05:08:22.758Z,7.50
2018-09-12T05:09:26.555Z,7.00
2018-09-12T05:10:29.440Z,6.50
2018-09-12T05:11:32.528Z,5.50
2018-09-12T05:12:35.330Z,7.25
2018-09-12T05:13:38.092Z,7.00
2018-09-12T05:14:40.834Z,8.00
2018-09-12T05:15:43.570Z,7.50
2018-09-12T05:16:47.119Z,9.25
2018-09-12T05:17:51.027Z,5.75
2018-09-12T05:18:53.829Z,7.75
2018-09-12T05:19:56.692Z,7.75
2018-09-12T05:21:00.829Z,5.75
2018-09-12T05:22:04.594Z,6.50
2018-09-12T05:23:10.700Z,6.25
2018-09-12T05:24:13.816Z,5.75
2018-09-12T05:25:16.584Z,6.25
2018-09-12T05:26:20.300Z,5.75
2018-09-12T05:27:23.852Z,7.00
2018-09-12T05:28:26.656Z,6.75
2018-09-12T05:29:29.723Z,5.00
2018-09-12T05:30:33.583Z,4.25
2018-09-12T05:33:47.004Z,5.50
2018-09-12T05:34:50.427Z,6.75
2018-09-12T05:35:53.229Z,6.50
2018-09-12T05:36:56.318Z,6.75
2018-09-12T05:37:59.089Z,6.25
2018-09-12T05:39:02.006Z,6.75
2018-09-12T05:40:05.329Z,7.00
2018-09-12T05:41:08.119Z,6.00
2018-09-12T05:42:11.973Z,4.00
2018-09-12T05:43:15.068Z,6.25
2018-09-12T05:44:17.797Z,8.00
2018-09-12T05:45:20.615Z,6.75
2018-09-12T05:46:24.210Z,7.00
2018-09-12T05:47:28.706Z,6.50
2018-09-12T05:48:31.580Z,7.25
2018-09-12T05:49:34.756Z,10.00
2018-09-12T05:50:37.525Z,8.25
2018-09-12T05:51:40.252Z,8.75
2018-09-12T05:52:42.993Z,7.00
2018-09-12T05:53:46.393Z,10.25
2018-09-12T05:54:49.157Z,9.00
2018-09-12T05:55:52.447Z,8.75
2018-09-12T05:56:55.170Z,11.25
2018-09-12T05:57:57.933Z,7.75
2018-09-12T05:59:00.789Z,7.75
2018-09-12T06:00:03.565Z,9.00
2018-09-12T06:01:06.310Z,9.00
2018-09-12T06:02:09.340Z,8.00
2018-09-12T06:03:12.070Z,9.50
2018-09-12T06:04:14.890Z,8.00
2018-09-12T06:05:17.701Z,8.00
2018-09-12T06:06:20.535Z,8.00
2018-09-12T06:07:23.774Z,6.50
2018-09-12T06:08:26.946Z,7.00
2018-09-12T06:09:30.523Z,8.00
2018-09-12T06:10:34.372Z,7.25
2018-09-12T06:11:37.745Z,9.00
2018-09-12T06:12:41.490Z,7.00
2018-09-12T06:13:44.868Z,8.00
2018-09-12T06:14:49.628Z,8.50
2018-09-12T06:15:52.492Z,11.00
2018-09-12T06:16:55.271Z,7.75
2018-09-12T06:17:58.238Z,8.75
2018-09-12T06:19:02.535Z,8.25
2018-09-12T06:20:05.378Z,7.00
2018-09-12T06:21:08.413Z,8.50
2018-09-12T06:22:11.231Z,7.00
2018-09-12T06:23:14.253Z,9.00
2018-09-12T06:24:17.319Z,8.75
2018-09-12T06:25:21.680Z,9.00
2018-09-12T06:26:24.438Z,9.50
2018-09-12T06:27:29.830Z,9.50
2018-09-12T06:28:33.445Z,9.00
2018-09-12T06:29:37.045Z,9.50
2018-09-12T06:30:39.897Z,9.25
2018-09-12T06:31:43.637Z,8.00
2018-09-12T06:32:46.371Z,8.25
2018-09-12T06:33:49.649Z,9.00
2018-09-12T06:34:52.482Z,7.75
2018-09-12T06:35:58.013Z,7.00
2018-09-12T06:37:00.796Z,8.00
2018-09-12T06:38:03.560Z,7.75
2018-09-12T06:39:06.524Z,8.00
2018-09-12T06:40:09.601Z,8.00
2018-09-12T06:41:12.511Z,8.00
2018-09-12T06:42:16.358Z,7.25
2018-09-12T06:43:20.009Z,8.00
2018-09-12T06:44:23.109Z,8.00
2018-09-12T06:45:26.653Z,8.00
2018-09-12T06:46:30.875Z,8.50
2018-09-12T06:47:34.206Z,7.75
2018-09-12T06:48:37.220Z,10.00
2018-09-12T06:49:40.010Z,12.50
2018-09-12T06:50:43.901Z,13.00
2018-09-12T06:51:46.669Z,13.25
2018-09-12T06:52:50.564Z,11.00
2018-09-12T06:53:53.401Z,15.00
2018-09-12T06:54:57.099Z,15.50
2018-09-12T06:55:59.921Z,14.25
2018-09-12T06:57:06.549Z,14.75
2018-09-12T06:58:09.300Z,15.75
2018-09-12T06:59:12.630Z,14.25
2018-09-12T07:00:15.616Z,15.00
2018-09-12T07:01:18.751Z,16.25
2018-09-12T07:02:22.960Z,12.50
2018-09-12T07:03:26.555Z,15.50
2018-09-12T07:04:30.890Z,15.00
2018-09-12T07:05:34.719Z,15.75
2018-09-12T07:06:40.243Z,13.75
2018-09-12T07:07:43.140Z,15.25
2018-09-12T07:08:46.137Z,17.50
2018-09-12T07:09:50.383Z,15.00
2018-09-12T07:10:53.212Z,15.50
2018-09-12T07:11:57.368Z,12.25
2018-09-12T07:13:00.250Z,14.00
2018-09-12T07:14:03.282Z,14.00
2018-09-12T07:15:08.177Z,14.75
2018-09-12T07:16:11.119Z,15.25
2018-09-12T07:17:16.661Z,14.50
2018-09-12T07:18:20.674Z,14.25
2018-09-12T07:19:24.441Z,14.25
2018-09-12T07:20:28.408Z,15.50
2018-09-12T07:21:31.289Z,14.00
2018-09-12T07:22:34.479Z,15.00
2018-09-12T07:23:37.878Z,14.50
2018-09-12T07:24:43.655Z,14.00
2018-09-12T07:25:46.466Z,14.25
2018-09-12T07:26:49.804Z,14.50
2018-09-12T07:27:52.908Z,12.75
2018-09-12T07:28:56.765Z,15.25
2018-09-12T07:30:01.669Z,14.00
2018-09-12T07:31:05.165Z,11.75
2018-09-12T07:32:08.452Z,15.00
2018-09-12T07:33:12.504Z,12.50
2018-09-12T07:34:16.766Z,12.75
2018-09-12T07:35:20.817Z,14.25
2018-09-12T07:36:23.753Z,14.75
2018-09-12T07:37:27.339Z,13.00
2018-09-12T07:38:30.576Z,11.75
2018-09-12T07:39:33.755Z,13.75
2018-09-12T07:40:41.578Z,13.00
2018-09-12T07:41:45.091Z,13.50
2018-09-12T07:42:51.057Z,13.25
2018-09-12T07:43:55.122Z,11.00
2018-09-12T07:44:58.377Z,13.75
2018-09-12T07:46:02.535Z,13.50
2018-09-12T07:47:06.000Z,13.00
2018-09-12T07:48:08.906Z,13.00
2018-09-12T07:49:11.748Z,13.00
2018-09-12T07:50:14.900Z,12.75
2018-09-12T07:51:18.109Z,12.75
2018-09-12T07:52:21.476Z,13.75
2018-09-12T07:53:24.629Z,14.00
2018-09-12T07:54:28.005Z,12.00
2018-09-12T07:55:31.109Z,13.50
2018-09-12T07:56:35.801Z,14.50
2018-09-12T07:57:38.620Z,11.75
2018-09-12T07:58:41.649Z,12.25
2018-09-12T07:59:44.403Z,13.75
2018-09-12T08:00:47.596Z,13.25
2018-09-12T08:01:51.202Z,12.25
2018-09-12T08:02:54.457Z,12.75
2018-09-12T08:03:57.231Z,11.00
2018-09-12T08:05:00.110Z,13.00
2018-09-12T08:06:08.074Z,13.00
2018-09-12T08:07:11.364Z,12.50
2018-09-12T08:08:14.140Z,13.50
2018-09-12T08:09:17.423Z,14.00
2018-09-12T08:10:20.213Z,13.00
2018-09-12T08:11:23.001Z,13.75
2018-09-12T08:12:25.742Z,11.25
2018-09-12T08:13:28.611Z,14.50
2018-09-12T08:14:31.823Z,13.00
2018-09-12T08:15:35.009Z,12.25
2018-09-12T08:16:37.828Z,12.75
2018-09-12T08:17:41.119Z,12.50
2018-09-12T08:18:43.896Z,14.50
2018-09-12T08:19:47.591Z,12.00
2018-09-12T08:20:50.563Z,12.75
2018-09-12T08:21:54.485Z,12.25
2018-09-12T08:22:57.544Z,12.25
2018-09-12T08:24:00.332Z,12.50
2018-09-12T08:25:03.118Z,11.75
2018-09-12T08:26:06.871Z,12.00
2018-09-12T08:27:10.661Z,10.75
2018-09-12T08:28:14.400Z,10.00
2018-09-12T08:29:20.083Z,8.00
2018-09-12T08:30:22.902Z,9.75
2018-09-12T08:31:27.075Z,10.25
2018-09-12T08:32:33.529Z,9.75
2018-09-12T08:33:36.332Z,8.00
2018-09-12T08:34:41.594Z,8.00
2018-09-12T08:35:44.366Z,8.00
2018-09-12T08:36:47.441Z,7.75
2018-09-12T08:37:50.256Z,8.00
2018-09-12T08:38:53.765Z,7.50
2018-09-12T08:39:58.067Z,5.00
2018-09-12T08:41:01.170Z,6.00
2018-09-12T08:42:04.008Z,7.50
2018-09-12T08:43:07.861Z,6.00
2018-09-12T08:44:11.283Z,5.50
2018-09-12T08:45:14.994Z,8.00
2018-09-12T08:46:17.857Z,6.00
2018-09-12T08:47:21.252Z,7.00
2018-09-12T08:48:25.327Z,7.00
2018-09-12T08:49:30.700Z,5.75
2018-09-12T08:50:33.546Z,8.00
2018-09-12T08:51:36.353Z,6.00
2018-09-12T08:52:39.328Z,7.75
2018-09-12T08:53:42.623Z,7.00
2018-09-12T08:54:47.288Z,7.00
2018-09-12T08:55:50.637Z,11.00
2018-09-12T08:56:53.795Z,7.25
2018-09-12T08:57:57.469Z,5.25
2018-09-12T08:59:00.231Z,6.00
2018-09-12T09:00:04.327Z,6.00
2018-09-12T09:01:07.086Z,6.00
2018-09-12T09:02:10.629Z,6.00
2018-09-12T09:03:15.914Z,6.75
2018-09-12T09:04:19.844Z,6.00
2018-09-12T09:05:22.608Z,6.50
2018-09-12T09:06:26.611Z,6.00
2018-09-12T09:07:30.974Z,6.00
2018-09-12T09:08:33.793Z,6.00
2018-09-12T09:09:37.237Z,4.00
2018-09-12T09:10:41.516Z,4.00
2018-09-12T09:11:44.361Z,4.75
2018-09-12T09:12:47.493Z,4.00
2018-09-12T09:13:50.396Z,4.25
2018-09-12T09:14:53.159Z,5.25
2018-09-12T09:15:55.919Z,5.00
2018-09-12T09:16:58.705Z,4.00
2018-09-12T09:18:03.355Z,4.00
2018-09-12T09:19:06.495Z,4.25
2018-09-12T09:20:09.484Z,4.50
2018-09-12T09:21:12.290Z,4.00
2018-09-12T09:22:15.299Z,3.25
2018-09-12T09:23:18.088Z,3.75
2018-09-12T09:24:23.612Z,4.00
2018-09-12T09:25:26.721Z,4.50
2018-09-12T09:26:30.281Z,4.00
2018-09-12T09:27:33.079Z,3.75
2018-09-12T09:28:35.878Z,4.00
2018-09-12T09:29:38.696Z,4.00
2018-09-12T09:30:42.917Z,5.00
2018-09-12T09:31:46.282Z,5.00
2018-09-12T09:32:49.147Z,4.00
2018-09-12T09:33:53.543Z,3.25
2018-09-12T09:34:58.864Z,4.50
2018-09-12T09:36:08.469Z,4.75
2018-09-12T09:37:22.129Z,4.00
2018-09-12T09:38:25.851Z,3.00
2018-09-12T09:39:29.427Z,3.50
2018-09-12T09:40:32.201Z,4.25
2018-09-12T09:41:36.008Z,3.75
2018-09-12T09:42:39.694Z,3.00
2018-09-12T09:44:52.434Z,4.25
2018-09-12T09:45:56.659Z,3.00
2018-09-12T09:47:03.272Z,4.00
2018-09-12T09:48:06.235Z,4.00
2018-09-12T09:49:09.501Z,3.50
2018-09-12T09:50:12.325Z,4.25
2018-09-12T09:51:15.817Z,4.00
2018-09-12T09:52:19.267Z,3.75
2018-09-12T09:53:22.176Z,3.00
2018-09-12T09:54:26.065Z,4.00
2018-09-12T09:55:29.226Z,3.75
2018-09-12T09:56:32.160Z,5.00
2018-09-12T09:57:35.278Z,3.25
2018-09-12T09:58:40.324Z,4.25
2018-09-12T09:59:43.400Z,3.00
2018-09-12T10:00:53.354Z,3.00
2018-09-12T10:02:01.129Z,3.25
2018-09-12T10:03:08.968Z,4.00
2018-09-12T10:04:11.984Z,3.00
2018-09-12T10:05:19.613Z,4.00
2018-09-12T10:06:26.373Z,3.00
2018-09-12T10:07:34.741Z,3.75
2018-09-12T10:08:42.403Z,3.75
2018-09-12T10:09:51.323Z,3.00
2018-09-12T10:10:54.172Z,3.25
2018-09-12T10:11:57.019Z,3.00
2018-09-12T10:13:01.798Z,3.50
2018-09-12T10:14:05.749Z,3.00
2018-09-12T10:15:09.577Z,3.75
2018-09-12T10:16:12.607Z,3.25
2018-09-12T10:17:15.390Z,4.00
2018-09-12T10:18:18.308Z,3.50
2018-09-12T10:19:21.075Z,3.25
2018-09-12T10:20:24.808Z,3.75
2018-09-12T10:21:27.710Z,3.00
2018-09-12T10:22:31.417Z,3.00
2018-09-12T10:23:34.359Z,3.00
2018-09-12T10:24:37.139Z,3.00
2018-09-12T10:25:39.982Z,4.00
2018-09-12T10:26:43.314Z,3.75
2018-09-12T10:27:47.375Z,3.25
2018-09-12T10:28:50.164Z,4.00
2018-09-12T10:29:53.092Z,3.00
2018-09-12T10:32:49.372Z,3.00
2018-09-12T10:33:52.630Z,4.00
2018-09-12T10:34:56.381Z,3.00
2018-09-12T10:35:59.474Z,3.00
2018-09-12T10:37:02.443Z,3.25
2018-09-12T10:38:06.168Z,3.50
2018-09-12T10:39:09.185Z,3.00
2018-09-12T10:40:12.618Z,3.00
2018-09-12T10:41:15.417Z,3.00
2018-09-12T10:42:18.222Z,3.50
2018-09-12T10:43:21.478Z,3.00
2018-09-12T10:44:24.452Z,3.00
2018-09-12T10:45:27.543Z,3.00
2018-09-12T10:46:31.612Z,3.00
2018-09-12T10:47:34.431Z,2.75
2018-09-12T10:48:37.661Z,3.00
2018-09-12T10:49:41.042Z,3.00
2018-09-12T10:50:44.457Z,3.00
2018-09-12T10:51:48.898Z,3.25
2018-09-12T10:52:52.374Z,3.75
2018-09-12T10:53:56.078Z,3.00
2018-09-12T10:54:59.980Z,2.75
2018-09-12T10:56:02.931Z,3.00
2018-09-12T10:57:06.234Z,3.75
2018-09-12T10:58:09.058Z,3.25
2018-09-12T10:59:12.473Z,3.50
2018-09-12T11:00:16.703Z,2.50
2018-09-12T11:01:20.050Z,3.00
2018-09-12T11:02:23.237Z,3.00
2018-09-12T11:03:30.699Z,3.50
2018-09-12T11:04:33.983Z,4.00
2018-09-12T11:05:41.972Z,2.00
2018-09-12T11:06:45.884Z,4.25
2018-09-12T11:07:49.135Z,3.00
2018-09-12T11:08:51.911Z,2.50
2018-09-12T11:09:54.922Z,2.75
2018-09-12T11:10:58.081Z,4.00
2018-09-12T11:12:01.752Z,3.00
2018-09-12T11:13:04.623Z,3.25
2018-09-12T11:14:07.722Z,3.00
2018-09-12T11:15:11.547Z,3.00
2018-09-12T11:16:14.473Z,3.25
2018-09-12T11:17:19.705Z,3.00
2018-09-12T11:18:24.505Z,3.00
2018-09-12T11:19:27.272Z,4.00
2018-09-12T11:20:31.558Z,4.00
2018-09-12T11:21:34.623Z,4.00
2018-09-12T11:22:37.448Z,3.00
2018-09-12T11:23:40.841Z,4.00
2018-09-12T11:24:47.856Z,3.00
2018-09-12T11:25:51.310Z,4.00
2018-09-12T11:26:54.854Z,4.00
2018-09-12T11:27:59.037Z,3.25
2018-09-12T11:29:02.761Z,3.00
2018-09-12T11:30:05.946Z,3.00
2018-09-12T11:31:08.743Z,3.00
2018-09-12T11:32:11.720Z,3.50
2018-09-12T11:33:16.718Z,4.00
2018-09-12T11:34:19.657Z,3.50
2018-09-12T11:35:22.692Z,4.00
2018-09-12T11:36:26.449Z,3.00
2018-09-12T11:37:29.229Z,4.00
2018-09-12T11:38:33.003Z,4.25
2018-09-12T11:39:35.768Z,4.00
2018-09-12T11:40:38.520Z,4.75
2018-09-12T11:41:41.893Z,4.00
2018-09-12T11:42:47.313Z,3.00
2018-09-12T11:43:51.373Z,4.00
2018-09-12T11:44:55.599Z,4.00
2018-09-12T11:45:59.653Z,4.00
2018-09-12T11:47:02.432Z,4.00
2018-09-12T11:48:05.761Z,4.50
2018-09-12T11:49:08.601Z,4.25
2018-09-12T11:50:11.374Z,3.50
2018-09-12T11:51:14.434Z,4.00
2018-09-12T11:52:17.877Z,4.25
2018-09-12T11:53:21.597Z,4.00
2018-09-12T11:54:24.728Z,4.00
2018-09-12T11:55:27.511Z,6.00
2018-09-12T11:56:31.438Z,5.00
2018-09-12T11:57:34.207Z,5.50
2018-09-12T11:58:37.066Z,5.00
2018-09-12T11:59:39.938Z,5.00
2018-09-12T12:00:43.803Z,6.00
2018-09-12T12:01:47.362Z,4.50
2018-09-12T12:02:50.571Z,5.75
2018-09-12T12:05:08.156Z,5.00
2018-09-12T12:06:11.379Z,5.75
2018-09-12T12:07:14.923Z,6.00
2018-09-12T12:08:18.006Z,6.25
2018-09-12T12:09:21.268Z,5.00
2018-09-12T12:10:24.852Z,6.00
2018-09-12T18:50:20.537Z,15.50
2018-09-12T18:51:25.327Z,16.75
2018-09-12T18:52:28.356Z,16.00
2018-09-12T18:53:33.002Z,14.50
2018-09-12T18:54:37.403Z,15.50
2018-09-12T18:55:41.792Z,15.25
2018-09-12T18:56:44.634Z,14.50
2018-09-12T18:57:48.696Z,17.50
2018-09-12T18:58:52.580Z,15.00
2018-09-12T18:59:57.590Z,14.00
2018-09-12T19:01:01.239Z,15.75
2018-09-12T19:02:04.693Z,13.75
2018-09-12T19:03:07.697Z,15.00
2018-09-12T19:04:11.161Z,14.00
2018-09-12T19:05:16.727Z,14.00
2018-09-12T19:06:28.563Z,13.00
2018-09-12T19:07:32.957Z,13.00
2018-09-12T19:08:35.935Z,13.00
2018-09-12T19:09:38.721Z,14.00
2018-09-12T19:11:52.874Z,13.50
2018-09-12T19:12:55.928Z,15.00
2018-09-12T19:13:59.774Z,15.25
2018-09-12T19:15:02.713Z,14.00
2018-09-12T19:16:06.906Z,13.50
2018-09-12T19:17:11.290Z,17.75
2018-09-12T19:18:14.554Z,16.50
2018-09-12T19:19:18.302Z,17.00
2018-09-12T19:20:22.502Z,16.75
2018-09-12T19:21:26.548Z,13.75
2018-09-12T19:22:29.368Z,12.75
2018-09-12T19:23:33.627Z,14.50
2018-09-12T19:24:38.288Z,12.25
2018-09-12T19:25:41.129Z,14.75
2018-09-12T19:26:45.730Z,14.50
2018-09-12T19:27:49.231Z,12.00
2018-09-12T19:28:51.980Z,13.75
2018-09-12T19:29:58.483Z,14.25
2018-09-12T19:31:02.480Z,13.75
2018-09-12T19:32:06.479Z,15.75
2018-09-12T19:33:09.612Z,15.25
2018-09-12T19:34:12.380Z,14.50
2018-09-12T19:35:16.201Z,12.00
2018-09-12T19:36:20.032Z,13.75
2018-09-12T19:37:23.097Z,13.00
2018-09-12T19:38:27.508Z,15.00
2018-09-12T19:39:31.977Z,12.75
2018-09-12T19:40:36.022Z,14.00
2018-09-12T19:41:39.819Z,12.00
2018-09-12T19:42:44.156Z,14.75
2018-09-12T19:43:47.309Z,13.00
2018-09-12T19:44:51.376Z,15.00
2018-09-12T19:45:54.834Z,14.25
2018-09-12T19:46:57.804Z,14.50
2018-09-12T19:48:03.428Z,15.75
2018-09-12T19:49:08.355Z,13.00
2018-09-12T19:50:12.155Z,17.75
2018-09-12T19:51:18.952Z,14.75
2018-09-12T19:52:24.411Z,14.25
2018-09-12T19:53:30.198Z,16.00
2018-09-12T19:54:37.689Z,16.00
2018-09-12T19:55:41.654Z,14.50
2018-09-12T19:56:46.600Z,15.00
2018-09-12T19:57:50.249Z,15.75
2018-09-12T19:58:55.533Z,13.50
2018-09-12T20:00:00.477Z,14.00
2018-09-12T20:01:04.381Z,14.75
2018-09-12T20:02:09.035Z,14.00
2018-09-12T20:03:13.514Z,14.50
2018-09-12T20:04:16.677Z,14.75
2018-09-12T20:05:19.938Z,15.00
2018-09-12T20:06:22.748Z,16.00
2018-09-12T20:07:27.655Z,15.75
2018-09-12T20:08:32.689Z,13.50
2018-09-12T20:09:35.517Z,16.00
2018-09-12T20:10:38.884Z,17.50
2018-09-12T20:11:43.457Z,23.75
2018-09-12T20:12:47.774Z,24.00
2018-09-12T20:13:51.796Z,21.75
2018-09-12T20:14:55.684Z,17.50
2018-09-12T20:15:59.319Z,15.00
2018-09-12T20:17:12.056Z,14.75
2018-09-12T20:18:15.591Z,15.00
2018-09-12T20:19:18.400Z,15.50
2018-09-12T20:20:24.221Z,14.75
2018-09-12T20:21:27.101Z,14.75
2018-09-12T20:22:29.847Z,15.00
2018-09-12T20:23:33.920Z,14.75
2018-09-12T20:24:38.201Z,14.00
2018-09-12T20:25:41.007Z,14.25
2018-09-12T20:26:44.325Z,13.00
2018-09-12T20:27:47.856Z,15.00
2018-09-12T20:28:52.705Z,14.00
2018-09-12T20:29:57.725Z,14.75
2018-09-12T20:31:01.984Z,15.25
2018-09-12T20:32:07.468Z,15.00
2018-09-12T20:33:12.292Z,13.75
2018-09-12T20:34:17.306Z,12.75
2018-09-12T20:35:24.292Z,14.25
2018-09-12T20:36:27.695Z,14.75
2018-09-12T20:37:31.788Z,14.00
2018-09-12T20:38:36.560Z,12.00
2018-09-12T20:39:41.564Z,13.75
2018-09-12T20:40:48.744Z,16.25
2018-09-12T20:41:55.632Z,17.50
2018-09-12T20:43:00.726Z,14.00
2018-09-12T20:44:07.119Z,14.75
2018-09-12T20:45:11.338Z,14.25
2018-09-12T20:46:15.488Z,14.00
2018-09-12T20:47:18.651Z,14.25